createdAt,value
2023-04-12T00:01:33.672Z,0.90
2023-04-12T00:04:05.074Z,1.02
2023-04-12T00:06:32.877Z,0.70
2023-04-12T00:09:02.195Z,0.55
2023-04-12T00:11:31.870Z,0.80
2023-04-12T00:13:58.926Z,0.65
2023-04-12T00:16:26.721Z,0.88
2023-04-12T00:18:57.799Z,0.68
2023-04-12T00:21:29.083Z,0.40
2023-04-12T00:23:57.452Z,0.73
2023-04-12T00:26:27.659Z,0.40
2023-04-12T00:28:55.063Z,0.70
2023-04-12T00:31:22.416Z,0.82
2023-04-12T00:33:49.774Z,0.80
2023-04-12T00:36:17.952Z,0.82
2023-04-12T00:38:51.452Z,1.25
2023-04-12T00:41:18.911Z,0.70
2023-04-12T00:43:46.052Z,0.65
2023-04-12T00:46:13.504Z,1.08
2023-04-12T00:48:41.099Z,0.85
2023-04-12T00:51:08.453Z,1.17
2023-04-12T00:53:36.433Z,0.80
2023-04-12T00:56:04.564Z,1.37
2023-04-12T00:58:32.306Z,0.60
2023-04-12T01:00:59.602Z,0.70
2023-04-12T01:03:31.230Z,1.98
2023-04-12T01:06:33.272Z,1.20
2023-04-12T01:09:11.639Z,0.70
2023-04-12T01:11:44.680Z,0.93
2023-04-12T01:14:14.631Z,0.77
2023-04-12T01:16:51.709Z,0.88
2023-04-12T01:19:29.239Z,0.60
2023-04-12T01:22:30.511Z,0.70
2023-04-12T01:25:05.144Z,0.93
2023-04-12T01:27:42.607Z,0.60
2023-04-12T01:30:14.252Z,0.37
2023-04-12T01:32:44.487Z,0.60
2023-04-12T01:35:13.270Z,0.70
2023-04-12T01:37:41.732Z,0.65
2023-04-12T01:40:15.235Z,0.77
2023-04-12T01:42:42.409Z,0.98
2023-04-12T01:45:09.941Z,0.93
2023-04-12T01:47:39.465Z,0.75
2023-04-12T01:50:28.494Z,0.88
2023-04-12T01:53:27.601Z,0.62
2023-04-12T01:56:00.033Z,0.60
2023-04-12T01:58:29.781Z,1.00
2023-04-12T02:00:59.273Z,1.23
2023-04-12T02:03:27.372Z,0.80
2023-04-12T02:05:54.635Z,0.80
2023-04-12T02:08:22.346Z,0.70
2023-04-12T02:10:49.512Z,0.52
2023-04-12T02:13:18.473Z,0.70
2023-04-12T02:15:46.277Z,0.50
2023-04-12T02:18:14.307Z,0.73
2023-04-12T02:20:41.507Z,0.98
2023-04-12T02:23:09.892Z,0.85
2023-04-12T02:25:36.996Z,0.82
2023-04-12T02:28:04.131Z,0.90
2023-04-12T02:30:31.360Z,1.08
2023-04-12T02:32:59.007Z,0.95
2023-04-12T02:35:26.705Z,1.85
2023-04-12T02:37:55.141Z,2.05
2023-04-12T02:40:22.473Z,1.00
2023-04-12T02:42:49.636Z,1.37
2023-04-12T02:45:16.932Z,1.23
2023-04-12T02:47:44.078Z,1.05
2023-04-12T02:50:12.234Z,1.52
2023-04-12T02:52:39.399Z,1.10
2023-04-12T02:55:07.079Z,2.75
2023-04-12T02:57:34.101Z,1.58
2023-04-12T03:00:01.930Z,1.60
2023-04-12T03:02:29.394Z,1.20
2023-04-12T03:04:57.335Z,1.17
2023-04-12T03:07:24.573Z,1.30
2023-04-12T03:09:52.120Z,1.58
2023-04-12T03:12:19.440Z,1.42
2023-04-12T03:14:46.701Z,1.60
2023-04-12T03:17:13.849Z,1.30
2023-04-12T03:19:41.086Z,0.88
2023-04-12T03:22:08.203Z,1.55
2023-04-12T03:24:35.430Z,1.10
2023-04-12T03:27:03.953Z,0.82
2023-04-12T03:29:31.653Z,0.98
2023-04-12T03:31:59.909Z,0.88
2023-04-12T03:34:28.147Z,1.70
2023-04-12T03:36:56.075Z,0.80
2023-04-12T03:39:23.289Z,0.90
2023-04-12T03:41:51.082Z,0.77
2023-04-12T03:44:18.317Z,0.93
2023-04-12T03:46:45.957Z,1.60
2023-04-12T03:49:13.286Z,0.73
2023-04-12T03:51:44.035Z,1.02
2023-04-12T03:54:14.748Z,3.75
2023-04-12T03:56:42.795Z,2.25
2023-04-12T03:59:10.879Z,7.63
2023-04-12T04:01:39.101Z,7.30
2023-04-12T04:04:07.221Z,5.97
2023-04-12T04:06:34.941Z,5.95
2023-04-12T04:09:02.183Z,5.35
2023-04-12T04:11:29.397Z,6.22
2023-04-12T04:13:56.722Z,4.22
2023-04-12T04:16:24.062Z,3.90
2023-04-12T04:18:51.378Z,4.47
2023-04-12T04:21:19.869Z,5.75
2023-04-12T04:23:48.350Z,6.97
2023-04-12T04:26:17.188Z,6.70
2023-04-12T04:28:48.054Z,2.35
2023-04-12T04:31:17.960Z,2.60
2023-04-12T04:33:45.132Z,2.15
2023-04-12T04:36:13.860Z,1.80
2023-04-12T04:38:42.326Z,1.90
2023-04-12T04:41:09.564Z,2.00
2023-04-12T04:43:40.213Z,1.90
2023-04-12T04:46:07.517Z,1.67
2023-04-12T04:48:34.858Z,1.80
2023-04-12T04:51:02.620Z,1.87
2023-04-12T04:53:29.703Z,1.98
2023-04-12T04:56:01.355Z,2.60
2023-04-12T04:58:28.585Z,3.17
2023-04-12T05:00:59.949Z,4.03
2023-04-12T05:03:31.049Z,4.55
2023-04-12T05:05:58.187Z,3.47
2023-04-12T05:08:25.429Z,7.43
2023-04-12T05:10:53.604Z,7.30
2023-04-12T05:13:22.555Z,8.02
2023-04-12T05:15:50.317Z,8.80
2023-04-12T05:18:18.352Z,4.70
2023-04-12T05:20:46.131Z,3.20
2023-04-12T05:23:13.157Z,2.70
2023-04-12T05:25:48.515Z,3.33
2023-04-12T05:28:20.267Z,3.72
2023-04-12T05:30:47.333Z,3.37
2023-04-12T05:33:14.474Z,5.75
2023-04-12T05:35:41.481Z,6.18
2023-04-12T05:38:08.577Z,12.07
2023-04-12T05:40:36.724Z,26.25
2023-04-12T05:43:03.977Z,25.42
2023-04-12T05:45:33.173Z,12.60
2023-04-12T05:48:00.363Z,9.60
2023-04-12T05:50:27.398Z,5.87
2023-04-12T05:52:55.817Z,15.85
2023-04-12T05:55:22.994Z,10.02
2023-04-12T05:57:50.132Z,17.92
2023-04-12T06:00:17.783Z,24.95
2023-04-12T06:02:46.328Z,8.73
2023-04-12T06:05:13.946Z,7.47
2023-04-12T06:07:44.875Z,5.47
2023-04-12T06:10:12.082Z,7.03
2023-04-12T06:12:39.430Z,4.00
2023-04-12T06:15:07.947Z,2.80
2023-04-12T06:17:45.238Z,2.70
2023-04-12T06:20:14.673Z,1.70
2023-04-12T06:22:45.377Z,1.50
2023-04-12T06:25:12.521Z,1.12
2023-04-12T06:27:39.567Z,1.37
2023-04-12T06:30:07.259Z,1.80
2023-04-12T06:32:34.475Z,2.00
2023-04-12T06:35:01.572Z,1.67
2023-04-12T06:37:28.681Z,1.50
2023-04-12T06:39:55.858Z,1.30
2023-04-12T06:42:23.007Z,1.15
2023-04-12T06:44:50.146Z,1.48
2023-04-12T06:47:20.366Z,1.25
2023-04-12T06:49:47.672Z,1.30
2023-04-12T06:52:14.946Z,0.70
2023-04-12T06:54:42.748Z,1.20
2023-04-12T06:57:12.603Z,1.02
2023-04-12T06:59:42.084Z,0.90
2023-04-12T07:02:09.292Z,0.60
2023-04-12T07:04:36.727Z,2.30
2023-04-12T07:07:03.948Z,1.40
2023-04-12T07:09:34.126Z,1.05
2023-04-12T07:12:02.648Z,0.98
2023-04-12T07:14:29.879Z,1.02
2023-04-12T07:16:59.402Z,1.20
2023-04-12T07:19:26.599Z,1.25
2023-04-12T07:21:53.786Z,1.77
2023-04-12T07:24:22.318Z,2.08
2023-04-12T07:26:49.909Z,2.10
2023-04-12T07:29:17.808Z,1.60
2023-04-12T07:31:44.958Z,2.78
2023-04-12T07:34:13.573Z,1.45
2023-04-12T07:36:40.937Z,2.67
2023-04-12T07:39:12.248Z,1.70
2023-04-12T07:41:39.782Z,1.10
2023-04-12T07:44:07.054Z,0.82
2023-04-12T07:46:36.611Z,0.98
2023-04-12T07:49:04.503Z,1.10
2023-04-12T07:51:31.698Z,1.02
2023-04-12T07:53:59.059Z,1.25
2023-04-12T07:56:26.551Z,1.52
2023-04-12T07:58:54.150Z,1.80
2023-04-12T08:01:21.613Z,1.87
2023-04-12T08:03:49.104Z,1.05
2023-04-12T08:06:17.837Z,1.40
2023-04-12T08:08:45.127Z,1.50
2023-04-12T08:11:14.232Z,1.40
2023-04-12T08:13:41.335Z,1.67
2023-04-12T08:16:09.454Z,1.15
2023-04-12T08:18:38.662Z,1.52
2023-04-12T08:21:06.019Z,1.12
2023-04-12T08:23:33.481Z,1.52
2023-04-12T08:26:05.133Z,1.50
2023-04-12T08:28:32.843Z,1.77
2023-04-12T08:31:02.025Z,1.70
2023-04-12T08:33:29.362Z,1.35
2023-04-12T08:35:57.074Z,2.10
2023-04-12T08:38:33.906Z,1.08
2023-04-12T08:41:14.804Z,1.15
2023-04-12T08:43:45.747Z,1.20
2023-04-12T08:46:17.969Z,1.05
2023-04-12T08:48:50.932Z,1.35
2023-04-12T08:51:19.798Z,1.65
2023-04-12T08:53:47.212Z,0.93
2023-04-12T08:56:17.884Z,1.35
2023-04-12T08:58:51.471Z,2.08
2023-04-12T09:01:20.948Z,1.12
2023-04-12T09:06:15.988Z,1.00
2023-04-12T09:08:55.323Z,1.35
2023-04-12T09:11:27.304Z,1.62
2023-04-12T09:13:56.530Z,1.15
2023-04-12T09:16:41.526Z,1.50
2023-04-12T09:19:09.748Z,1.20
2023-04-12T09:21:37.483Z,1.37
2023-04-12T09:24:14.796Z,1.15
2023-04-12T09:26:42.548Z,1.30
2023-04-12T09:29:25.541Z,0.98
2023-04-12T09:32:08.095Z,0.90
2023-04-12T09:34:38.702Z,1.27
2023-04-12T09:37:24.623Z,1.17
2023-04-12T09:40:11.113Z,1.75
2023-04-12T09:42:53.711Z,1.58
2023-04-12T09:45:26.164Z,1.40
2023-04-12T09:47:54.841Z,1.92
2023-04-12T09:50:30.029Z,1.05
2023-04-12T09:52:59.500Z,1.15
2023-04-12T09:55:30.058Z,0.98
2023-04-12T09:57:58.774Z,1.08
2023-04-12T10:00:27.659Z,1.00
2023-04-12T10:02:57.087Z,1.42
2023-04-12T10:05:26.921Z,0.93
2023-04-12T10:07:58.684Z,1.23
2023-04-12T10:10:26.282Z,0.80
2023-04-12T10:12:53.580Z,0.88
2023-04-12T10:15:23.926Z,1.02
2023-04-12T10:17:57.887Z,1.15
2023-04-12T10:20:28.517Z,0.90
2023-04-12T10:22:58.151Z,1.27
2023-04-12T10:25:31.840Z,1.65
2023-04-12T10:28:14.730Z,1.65
2023-04-12T10:30:42.229Z,1.15
2023-04-12T10:33:14.351Z,1.10
2023-04-12T10:36:01.029Z,1.62
2023-04-12T10:38:33.645Z,1.40
2023-04-12T10:41:21.171Z,1.00
2023-04-12T10:43:52.606Z,1.25
2023-04-12T10:46:41.629Z,1.42
2023-04-12T10:49:11.838Z,2.00
2023-04-12T10:51:39.339Z,2.37
2023-04-12T10:54:11.944Z,1.90
2023-04-12T10:56:41.081Z,1.65
2023-04-12T10:59:09.843Z,1.15
2023-04-12T11:01:39.471Z,1.23
2023-04-12T11:04:24.122Z,1.20
2023-04-12T11:06:59.164Z,1.62
2023-04-12T11:09:39.702Z,0.85
2023-04-12T11:12:09.580Z,0.90
2023-04-12T11:14:48.402Z,0.90
2023-04-12T11:17:16.144Z,1.02
2023-04-12T11:19:46.585Z,0.90
2023-04-12T11:22:16.634Z,1.73
2023-04-12T11:24:45.624Z,1.20
2023-04-12T11:27:13.252Z,1.10
2023-04-12T11:29:40.591Z,0.88
2023-04-12T11:32:15.077Z,2.15
2023-04-12T11:34:48.267Z,1.58
2023-04-12T11:37:16.054Z,0.88
2023-04-12T11:39:44.853Z,1.75
2023-04-12T11:42:21.210Z,1.15
2023-04-12T11:44:57.302Z,2.72
2023-04-12T11:47:28.063Z,3.90
2023-04-12T11:49:59.505Z,1.02
2023-04-12T11:52:32.190Z,0.95
2023-04-12T11:55:07.827Z,1.08
2023-04-12T11:57:37.681Z,1.30
2023-04-12T12:00:08.294Z,1.05
2023-04-12T12:02:43.546Z,1.65
2023-04-12T12:05:13.853Z,1.20
2023-04-12T12:07:43.397Z,1.10
2023-04-12T12:12:37.862Z,1.20
2023-04-12T12:15:05.408Z,0.93
2023-04-12T12:17:38.207Z,0.80
2023-04-12T12:20:08.105Z,0.90
2023-04-12T12:22:35.230Z,0.90
2023-04-12T12:25:04.404Z,1.10
2023-04-12T12:27:35.573Z,0.93
2023-04-12T12:30:04.748Z,0.95
2023-04-12T12:32:37.504Z,1.17
2023-04-12T12:35:10.327Z,1.15
2023-04-12T12:37:37.559Z,1.00
2023-04-12T12:40:18.053Z,1.00
2023-04-12T12:42:56.642Z,1.08
2023-04-12T12:45:26.082Z,1.03
2023-04-12T12:50:33.150Z,0.70
2023-04-12T12:53:01.258Z,0.75
2023-04-12T12:55:33.547Z,0.97
2023-04-12T13:00:31.952Z,0.60
2023-04-12T13:03:02.181Z,3.72
2023-04-12T13:05:30.050Z,1.15
2023-04-12T13:07:57.281Z,0.80
2023-04-12T13:10:24.650Z,1.87
2023-04-12T13:12:55.150Z,1.17
2023-04-12T13:15:24.167Z,1.25
2023-04-12T13:17:55.649Z,1.10
2023-04-12T13:20:41.028Z,0.62
2023-04-12T13:23:11.031Z,1.23
2023-04-12T13:25:42.061Z,1.15
2023-04-12T13:28:13.082Z,0.80
2023-04-12T13:30:40.252Z,0.77
2023-04-12T13:33:09.967Z,1.40
2023-04-12T13:35:37.671Z,0.85
2023-04-12T13:38:04.792Z,1.08
2023-04-12T13:40:32.147Z,1.17
2023-04-12T13:43:02.846Z,1.35
2023-04-12T13:45:31.164Z,1.37
2023-04-12T13:48:00.130Z,1.33
2023-04-12T13:50:27.609Z,1.20
2023-04-12T13:52:56.712Z,1.27
2023-04-12T13:55:23.861Z,1.12
2023-04-12T13:57:51.042Z,0.82
2023-04-12T14:00:27.894Z,1.30
2023-04-12T14:02:55.207Z,1.52
2023-04-12T14:05:23.091Z,1.00
2023-04-12T14:07:51.121Z,1.00
2023-04-12T14:10:18.517Z,0.90
2023-04-12T14:12:45.670Z,1.40
2023-04-12T14:15:12.841Z,1.37
2023-04-12T14:17:42.050Z,1.10
2023-04-12T14:20:16.602Z,1.25
2023-04-12T14:22:45.049Z,1.33
2023-04-12T14:25:12.163Z,0.88
2023-04-12T14:27:39.239Z,1.30
2023-04-12T14:30:07.711Z,1.52
2023-04-12T14:32:34.804Z,1.73
2023-04-12T14:35:04.925Z,1.50
2023-04-12T14:37:33.315Z,0.93
2023-04-12T14:40:00.384Z,1.50
2023-04-12T14:42:27.470Z,1.42
2023-04-12T14:44:54.456Z,1.67
2023-04-12T14:47:21.842Z,1.37
2023-04-12T14:49:48.905Z,1.20
2023-04-12T14:52:16.809Z,1.12
2023-04-12T14:54:43.839Z,1.40
2023-04-12T14:57:11.477Z,1.40
2023-04-12T14:59:40.523Z,1.35
2023-04-12T15:02:07.747Z,1.15
2023-04-12T15:04:37.046Z,0.90
2023-04-12T15:07:04.139Z,1.08
2023-04-12T15:09:31.398Z,0.95
2023-04-12T15:12:03.429Z,1.10
2023-04-12T15:14:30.493Z,0.90
2023-04-12T15:16:59.542Z,0.93
2023-04-12T15:19:26.548Z,0.65
2023-04-12T15:21:59.199Z,1.00
2023-04-12T15:24:28.345Z,1.10
2023-04-12T15:26:55.439Z,1.42
2023-04-12T15:29:22.976Z,1.42
2023-04-12T15:31:50.473Z,1.40
2023-04-12T15:34:17.945Z,1.70
2023-04-12T15:36:46.355Z,1.15
2023-04-12T15:39:15.230Z,1.10
2023-04-12T15:41:43.416Z,1.60
2023-04-12T15:44:14.382Z,1.45
2023-04-12T15:46:42.047Z,1.25
2023-04-12T15:49:09.964Z,1.40
2023-04-12T15:51:36.943Z,1.42
2023-04-12T15:54:05.627Z,1.40
2023-04-12T15:56:32.798Z,1.20
2023-04-12T15:59:01.452Z,2.75
2023-04-12T16:01:28.825Z,2.40
2023-04-12T16:03:56.078Z,1.35
2023-04-12T16:06:25.525Z,1.08
2023-04-12T16:08:54.872Z,1.65
2023-04-12T16:11:24.113Z,1.85
2023-04-12T16:13:51.867Z,2.22
2023-04-12T16:16:21.556Z,1.10
2023-04-12T16:18:49.159Z,1.20
2023-04-12T16:21:20.376Z,1.50
2023-04-12T16:23:49.141Z,1.33
2023-04-12T16:26:24.971Z,1.23
2023-04-12T16:28:53.530Z,1.40
2023-04-12T16:31:21.453Z,1.33
2023-04-12T16:33:49.909Z,1.90
2023-04-12T16:36:17.435Z,2.72
2023-04-12T16:38:45.858Z,2.17
2023-04-12T16:41:13.299Z,2.53
2023-04-12T16:43:41.495Z,2.53
2023-04-12T16:46:10.933Z,2.10
2023-04-12T16:48:43.841Z,2.20
2023-04-12T16:51:10.853Z,2.47
2023-04-12T16:53:37.994Z,2.60
2023-04-12T16:56:07.473Z,2.65
2023-04-12T16:58:34.536Z,2.17
2023-04-12T17:01:02.181Z,1.42
2023-04-12T17:03:29.330Z,5.90
2023-04-12T17:05:56.370Z,2.60
2023-04-12T17:08:23.501Z,2.08
2023-04-12T17:10:53.142Z,1.60
2023-04-12T17:15:50.552Z,2.45
2023-04-12T17:18:17.672Z,1.55
2023-04-12T17:20:45.096Z,1.70
2023-04-12T17:23:12.654Z,1.90
2023-04-12T17:25:40.172Z,1.30
2023-04-12T17:28:08.688Z,1.50
2023-04-12T17:30:35.764Z,1.52
2023-04-12T17:33:03.269Z,1.60
2023-04-12T17:35:30.362Z,2.08
2023-04-12T17:37:57.514Z,1.92
2023-04-12T17:40:24.545Z,1.20
2023-04-12T17:42:53.637Z,1.62
2023-04-12T17:45:22.094Z,2.15
2023-04-12T17:47:49.441Z,2.20
2023-04-12T17:50:16.744Z,2.92
2023-04-12T17:52:44.997Z,1.77
2023-04-12T17:55:13.107Z,1.77
2023-04-12T17:57:40.403Z,2.17
2023-04-12T18:00:12.112Z,5.10
2023-04-12T18:02:39.773Z,29.27
2023-04-12T18:05:07.853Z,30.75
2023-04-12T18:07:35.022Z,34.17
2023-04-12T18:10:03.569Z,33.22
2023-04-12T18:12:30.634Z,28.52
2023-04-12T18:14:57.688Z,31.30
2023-04-12T18:17:26.539Z,27.80
2023-04-12T18:19:54.675Z,19.58
2023-04-12T18:22:21.857Z,19.62
2023-04-12T18:24:48.911Z,19.55
2023-04-12T18:27:15.928Z,24.50
2023-04-12T18:29:43.013Z,28.83
2023-04-12T18:32:09.984Z,33.42
2023-04-12T18:34:36.934Z,37.65
2023-04-12T18:37:06.183Z,33.25
2023-04-12T18:39:35.866Z,34.65
2023-04-12T18:44:30.536Z,38.60
2023-04-12T18:46:57.492Z,33.47
2023-04-12T18:49:24.606Z,29.70
2023-04-12T18:51:53.504Z,29.52
2023-04-12T18:54:21.407Z,23.67
2023-04-12T18:56:49.853Z,23.60
2023-04-12T18:59:18.001Z,16.45
2023-04-12T19:01:45.935Z,17.48
2023-04-12T19:04:13.268Z,17.65
2023-04-12T19:06:42.466Z,17.42
2023-04-12T19:09:09.541Z,11.98
2023-04-12T19:11:37.228Z,14.75
2023-04-12T19:14:04.720Z,14.85
2023-04-12T19:16:32.358Z,18.30
2023-04-12T19:19:00.499Z,13.30
2023-04-12T19:21:31.801Z,5.37
2023-04-12T19:23:59.276Z,4.30
2023-04-12T19:26:28.778Z,3.97
2023-04-12T19:28:58.469Z,4.12
2023-04-12T19:31:25.994Z,4.50
2023-04-12T19:33:54.929Z,8.05
2023-04-12T19:36:24.883Z,16.80
2023-04-12T19:38:52.379Z,10.45
2023-04-12T19:41:20.753Z,7.65
2023-04-12T19:43:48.026Z,9.80
2023-04-12T19:46:15.286Z,18.52
2023-04-12T19:48:42.942Z,21.33
2023-04-12T19:51:10.039Z,22.65
2023-04-12T19:53:37.209Z,15.00
2023-04-12T19:56:04.526Z,10.32
2023-04-12T19:58:32.356Z,7.62
2023-04-12T20:01:02.352Z,9.40
2023-04-12T20:03:30.397Z,10.65
2023-04-12T20:05:59.305Z,8.80
2023-04-12T20:08:28.724Z,7.10
2023-04-12T20:10:56.534Z,5.65
2023-04-12T20:13:23.571Z,4.32
2023-04-12T20:15:51.381Z,4.28
2023-04-12T20:18:18.445Z,4.80
2023-04-12T20:20:45.904Z,3.50
2023-04-12T20:23:13.969Z,3.80
2023-04-12T20:25:42.059Z,3.35
2023-04-12T20:28:09.694Z,3.00
2023-04-12T20:30:37.198Z,2.80
2023-04-12T20:33:04.813Z,3.42
2023-04-12T20:35:32.333Z,3.28
2023-04-12T20:38:00.285Z,2.45
2023-04-12T20:40:30.057Z,3.25
2023-04-12T20:45:24.424Z,7.07
2023-04-12T20:47:51.595Z,5.55
2023-04-12T20:50:22.660Z,3.92
2023-04-12T20:52:52.309Z,3.53
2023-04-12T20:55:19.811Z,2.90
2023-04-12T20:57:46.906Z,2.67
2023-04-12T21:00:21.168Z,3.10
2023-04-12T21:02:49.071Z,2.70
2023-04-12T21:05:17.262Z,3.10
2023-04-12T21:07:47.029Z,3.45
2023-04-12T21:10:15.263Z,3.20
2023-04-12T21:12:43.029Z,3.30
2023-04-12T21:15:12.226Z,3.87
2023-04-12T21:17:39.435Z,3.30
2023-04-12T21:20:13.672Z,4.10
2023-04-12T21:22:44.424Z,4.53
2023-04-12T21:25:14.038Z,4.00
2023-04-12T21:27:45.930Z,4.40
2023-04-12T21:30:13.854Z,11.20
2023-04-12T21:32:41.464Z,23.90
2023-04-12T21:35:10.087Z,20.12
2023-04-12T21:37:39.420Z,11.38
2023-04-12T21:40:09.626Z,6.45
2023-04-12T21:42:37.720Z,3.97
2023-04-12T21:45:05.740Z,5.75
2023-04-12T21:47:33.155Z,8.40
2023-04-12T21:50:00.742Z,5.22
2023-04-12T21:52:28.023Z,6.47
2023-04-12T21:54:55.933Z,5.60
2023-04-12T21:57:23.014Z,4.28
2023-04-12T21:59:49.954Z,5.12
2023-04-12T22:02:16.980Z,5.12
2023-04-12T22:04:44.370Z,3.40
2023-04-12T22:07:13.542Z,4.32
2023-04-12T22:09:41.640Z,3.87
2023-04-12T22:12:10.167Z,3.65
2023-04-12T22:14:37.361Z,2.67
2023-04-12T22:17:06.258Z,2.75
2023-04-12T22:19:33.345Z,2.23
2023-04-12T22:22:01.763Z,2.10
2023-04-12T22:24:29.656Z,2.42
2023-04-12T22:26:57.694Z,3.53
2023-04-12T22:29:25.617Z,2.33
2023-04-12T22:31:52.996Z,2.28
2023-04-12T22:34:20.089Z,3.00
2023-04-12T22:36:51.837Z,3.30
2023-04-12T22:39:20.528Z,2.90
2023-04-12T22:41:53.347Z,3.78
2023-04-12T22:44:23.541Z,3.05
2023-04-12T22:46:54.603Z,2.87
2023-04-12T22:49:28.452Z,2.90
2023-04-12T22:51:56.126Z,3.35
2023-04-12T22:54:26.720Z,2.75
2023-04-12T22:56:53.772Z,2.95
2023-04-12T22:59:23.266Z,2.97
2023-04-12T23:01:50.719Z,2.37
2023-04-12T23:04:17.820Z,2.60
2023-04-12T23:06:45.589Z,3.50
2023-04-12T23:09:13.115Z,3.00
2023-04-12T23:11:41.478Z,3.03
2023-04-12T23:14:09.941Z,2.47
2023-04-12T23:16:42.621Z,3.20
2023-04-12T23:19:09.799Z,2.42
2023-04-12T23:21:37.380Z,2.40
2023-04-12T23:24:05.559Z,2.72
2023-04-12T23:26:34.588Z,2.42
2023-04-12T23:29:03.919Z,2.33
2023-04-12T23:31:33.659Z,2.30
2023-04-12T23:36:31.000Z,2.78
2023-04-12T23:39:00.565Z,2.33
2023-04-12T23:41:32.242Z,3.10
2023-04-12T23:44:00.547Z,3.03
2023-04-12T23:46:28.163Z,2.78
2023-04-12T23:48:55.402Z,2.97
2023-04-12T23:51:22.961Z,2.67
2023-04-12T23:53:50.522Z,4.35
2023-04-12T23:56:17.662Z,3.72
2023-04-12T23:58:44.790Z,3.67
